Time;durP1;ratioP1;P1;durP2;ratioP2;P2;SDS_P1;SDS_P2;PMS_P1;PMS_P2;Temp;Humidity;BMP_temperature;BMP_pressure;BME280_temperature;BME280_humidity;BME280_pressure;Samples;Min_cycle;Max_cycle;Signal;HPM_P1;HPM_P2
2022/10/23 00:00:44;;;;;;;;;5.00;4.00;;;;;19.04;59.03;100481.75;5095605;27;45605;-50
2022/10/23 00:03:09;;;;;;;;;5.50;4.00;;;;;19.05;59.16;100472.84;5085474;27;46682;-52
2022/10/23 00:05:39;;;;;;;;;6.50;4.25;;;;;19.07;59.10;100475.38;5084364;27;45305;-53
2022/10/23 00:08:04;;;;;;;;;4.25;4.25;;;;;19.07;58.90;100470.94;5104078;27;45415;-52
2022/10/23 00:10:29;;;;;;;;;5.50;4.00;;;;;19.02;58.87;100461.59;5089157;27;54268;-53
2022/10/23 00:12:55;;;;;;;;;5.25;4.50;;;;;18.97;58.99;100457.44;5085451;27;46159;-52
2022/10/23 00:15:21;;;;;;;;;6.25;5.00;;;;;18.95;59.08;100453.19;5096613;27;69087;-53
2022/10/23 00:17:47;;;;;;;;;4.00;4.00;;;;;18.93;59.29;100450.66;5093060;27;45312;-52
2022/10/23 00:20:14;;;;;;;;;6.50;3.75;;;;;18.92;58.82;100454.25;5101801;27;45475;-51
2022/10/23 00:22:39;;;;;;;;;7.00;4.50;;;;;18.88;59.17;100443.97;5094095;27;45956;-53
2022/10/23 00:25:06;;;;;;;;;5.50;5.00;;;;;18.86;59.10;100444.06;5086938;27;66518;-49
2022/10/23 00:27:31;;;;;;;;;3.75;3.50;;;;;18.84;59.29;100447.75;5084416;27;45470;-52
2022/10/23 00:29:57;;;;;;;;;5.50;2.75;;;;;18.85;59.05;100444.16;5081848;27;45470;-49
2022/10/23 00:32:22;;;;;;;;;6.50;3.50;;;;;18.85;59.29;100442.34;5070865;28;74606;-51
2022/10/23 00:34:47;;;;;;;;;5.50;3.00;;;;;18.86;59.26;100438.75;5086546;27;67680;-47
2022/10/23 00:37:13;;;;;;;;;6.75;3.00;;;;;18.88;59.32;100441.31;5077747;27;65890;-49
2022/10/23 00:39:38;;;;;;;;;3.50;3.00;;;;;18.90;59.23;100439.41;5089739;27;65134;-48
2022/10/23 00:42:03;;;;;;;;;3.25;3.00;;;;;18.91;59.21;100433.13;5070733;27;47322;-48
2022/10/23 00:44:29;;;;;;;;;4.75;4.00;;;;;18.93;59.53;100436.53;5095415;27;56287;-48
2022/10/23 00:46:55;;;;;;;;;4.67;3.67;;;;;18.89;59.28;100435.03;5098898;27;45401;-52
2022/10/23 00:49:21;;;;;;;;;3.00;2.00;;;;;18.87;59.35;100426.34;5101965;27;45475;-50
2022/10/23 00:51:50;;;;;;;;;3.00;2.00;;;;;18.83;59.22;100416.91;5097775;27;45252;-50
2022/10/23 00:54:18;;;;;;;;;4.25;3.25;;;;;18.82;59.25;100410.72;5067086;27;45233;-52
2022/10/23 00:56:45;;;;;;;;;2.00;1.75;;;;;18.84;59.05;100418.56;5094750;27;45493;-52
2022/10/23 00:59:11;;;;;;;;;3.50;3.00;;;;;18.85;59.27;100410.53;5077943;27;46177;-49
2022/10/23 01:01:36;;;;;;;;;3.00;2.50;;;;;18.84;59.30;100403.53;5093270;27;45553;-48
2022/10/23 01:04:04;;;;;;;;;3.00;3.00;;;;;18.86;59.08;100398.13;5094746;27;72582;-48
2022/10/23 01:06:32;;;;;;;;;4.50;3.00;;;;;18.87;58.91;100397.16;5083768;27;45457;-48
2022/10/23 01:09:03;;;;;;;;;3.25;3.00;;;;;18.86;58.96;100377.78;5102074;27;45439;-48
2022/10/23 01:11:41;;;;;;;;;3.50;2.25;;;;;18.89;58.92;100374.03;5099036;27;47098;-47
2022/10/23 01:14:25;;;;;;;;;4.00;2.25;;;;;18.89;58.79;100372.28;5096975;27;45434;-47
2022/10/23 01:17:15;;;;;;;;;6.00;2.50;;;;;18.89;58.67;100366.97;5076612;27;45473;-47
2022/10/23 01:19:55;;;;;;;;;3.00;3.00;;;;;18.93;58.60;100364.97;5079885;27;45360;-49
2022/10/23 01:22:37;;;;;;;;;2.50;2.00;;;;;18.95;58.54;100366.53;5075061;28;45349;-51
2022/10/23 01:25:05;;;;;;;;;5.00;2.00;;;;;18.97;58.32;100354.00;5057449;27;45298;-48
2022/10/23 01:27:35;;;;;;;;;2.50;1.00;;;;;18.99;58.48;100351.25;5082470;27;45454;-47
2022/10/23 01:30:13;;;;;;;;;3.00;3.00;;;;;19.01;58.23;100343.22;5076034;27;45475;-48
2022/10/23 01:32:47;;;;;;;;;3.00;2.75;;;;;18.98;57.85;100333.63;5068693;28;46315;-51
2022/10/23 01:35:45;;;;;;;;;3.00;2.00;;;;;18.96;57.84;100333.78;5079788;27;45272;-51
2022/10/23 01:38:15;;;;;;;;;3.75;1.00;;;;;18.95;58.10;100324.09;5051375;27;45425;-49
2022/10/23 01:40:47;;;;;;;;;3.50;3.00;;;;;18.96;57.99;100315.22;5070138;27;45423;-49
2022/10/23 01:43:24;;;;;;;;;2.00;2.00;;;;;18.97;58.08;100319.53;5078981;27;45417;-52
2022/10/23 01:45:52;;;;;;;;;3.75;3.50;;;;;19.01;57.96;100330.78;5082821;27;45464;-52
2022/10/23 01:48:26;;;;;;;;;3.00;2.00;;;;;19.03;57.68;100338.63;5079480;27;45448;-49
2022/10/23 01:50:53;;;;;;;;;3.75;3.75;;;;;19.06;57.78;100327.81;5071873;27;45223;-49
2022/10/23 01:53:19;;;;;;;;;3.00;3.00;;;;;19.08;57.70;100331.22;5080200;27;46355;-53
2022/10/23 01:55:46;;;;;;;;;5.75;3.00;;;;;19.09;57.69;100331.13;5067983;27;45295;-48
2022/10/23 01:58:12;;;;;;;;;3.00;3.00;;;;;19.10;57.79;100331.97;5091563;27;45366;-53
2022/10/23 02:00:38;;;;;;;;;6.00;2.25;;;;;19.07;57.63;100322.41;5089557;27;45418;-48
2022/10/23 02:03:05;;;;;;;;;2.50;2.00;;;;;19.05;57.68;100311.06;5073303;27;72364;-51
2022/10/23 02:05:31;;;;;;;;;3.75;2.50;;;;;19.00;57.49;100313.19;5094085;27;45754;-51
2022/10/23 02:07:57;;;;;;;;;5.00;1.75;;;;;18.94;57.83;100311.78;5073179;27;49201;-49
2022/10/23 02:10:30;;;;;;;;;1.75;1.75;;;;;18.90;58.22;100301.53;5084931;27;46061;-51
2022/10/23 02:13:10;;;;;;;;;3.00;2.00;;;;;18.87;57.96;100291.13;5072912;27;46530;-51
2022/10/23 02:15:40;;;;;;;;;3.00;2.00;;;;;18.85;58.19;100283.25;5081478;27;45637;-52
2022/10/23 02:18:15;;;;;;;;;1.75;1.75;;;;;18.84;57.92;100296.63;5060180;28;45893;-51
2022/10/23 02:20:52;;;;;;;;;2.75;2.25;;;;;18.84;58.42;100294.84;5085399;27;45340;-48
2022/10/23 02:23:34;;;;;;;;;6.25;2.75;;;;;18.85;58.28;100293.88;5062430;28;46749;-47
2022/10/23 02:26:08;;;;;;;;;3.00;3.00;;;;;18.84;58.30;100294.84;5076057;27;45804;-51
2022/10/23 02:28:47;;;;;;;;;3.25;2.00;;;;;18.82;58.30;100285.28;5096580;27;45284;-48
2022/10/23 02:31:15;;;;;;;;;3.75;1.25;;;;;18.81;58.31;100276.44;5069779;27;45357;-49
2022/10/23 02:33:43;;;;;;;;;2.00;2.00;;;;;18.79;58.53;100267.75;5096477;27;46392;-49
2022/10/23 02:36:08;;;;;;;;;8.00;4.00;;;;;18.79;58.75;100270.41;5088387;27;45391;-51
2022/10/23 02:38:36;;;;;;;;;3.50;3.00;;;;;18.75;58.77;100259.16;5086855;27;50559;-47
2022/10/23 02:41:28;;;;;;;;;2.50;2.50;;;;;18.72;58.70;100259.38;5080977;27;45551;-48
2022/10/23 02:43:54;;;;;;;;;3.75;3.00;;;;;18.68;58.67;100249.06;5072448;27;45335;-47
2022/10/23 02:46:40;;;;;;;;;3.00;3.00;;;;;18.66;58.67;100245.69;5100392;27;45279;-50
2022/10/23 02:49:29;;;;;;;;;5.00;3.00;;;;;18.67;58.86;100245.59;5092477;27;45430;-50
2022/10/23 02:52:14;;;;;;;;;3.50;2.00;;;;;18.68;59.01;100242.00;5077544;27;45282;-50
2022/10/23 02:54:45;;;;;;;;;2.00;2.00;;;;;18.69;58.76;100238.38;5072554;27;46132;-50
2022/10/23 02:57:20;;;;;;;;;2.00;2.00;;;;;18.67;59.09;100236.78;5073444;27;45656;-49
2022/10/23 02:59:53;;;;;;;;;2.00;2.00;;;;;18.65;59.27;100233.41;5078192;27;45482;-49
2022/10/23 03:02:25;;;;;;;;;4.25;3.00;;;;;18.66;59.25;100230.66;5100627;27;45499;-47
2022/10/23 03:04:52;;;;;;;;;4.75;2.00;;;;;18.64;59.49;100224.59;5079413;27;46221;-48
2022/10/23 03:07:18;;;;;;;;;2.25;2.00;;;;;18.63;59.23;100214.97;5097076;27;45792;-51
2022/10/23 03:09:44;;;;;;;;;4.50;2.25;;;;;18.65;59.33;100214.84;5079024;27;45383;-52
2022/10/23 03:12:09;;;;;;;;;4.00;3.00;;;;;18.67;59.15;100205.00;5082308;27;61509;-52
2022/10/23 03:14:35;;;;;;;;;4.25;3.25;;;;;18.67;59.68;100207.63;5081611;27;47432;-51
2022/10/23 03:17:00;;;;;;;;;2.00;2.00;;;;;18.67;59.64;100194.38;5096439;27;73348;-51
2022/10/23 03:19:26;;;;;;;;;3.00;2.00;;;;;18.68;59.69;100204.88;5075529;27;45446;-53
2022/10/23 03:21:51;;;;;;;;;3.75;2.25;;;;;18.67;59.64;100197.88;5093681;27;45454;-50
2022/10/23 03:24:16;;;;;;;;;6.25;3.00;;;;;18.67;60.12;100207.63;5085894;27;70249;-51
2022/10/23 03:26:42;;;;;;;;;4.50;3.00;;;;;18.68;59.73;100198.72;5089997;27;72217;-49
2022/10/23 03:29:07;;;;;;;;;3.00;3.00;;;;;18.71;59.95;100194.06;5079671;27;49911;-50
2022/10/23 03:31:32;;;;;;;;;5.00;3.00;;;;;18.71;59.85;100190.56;5100100;27;45212;-50
2022/10/23 03:33:58;;;;;;;;;4.50;3.25;;;;;18.71;59.85;100177.31;5089083;27;45512;-47
2022/10/23 03:36:23;;;;;;;;;5.50;3.00;;;;;18.72;59.74;100163.94;5099617;27;45267;-52
2022/10/23 03:38:49;;;;;;;;;3.50;3.25;;;;;18.74;59.79;100177.94;5099729;27;45210;-49
2022/10/23 03:41:14;;;;;;;;;2.75;2.75;;;;;18.75;59.39;100181.44;5099807;27;51270;-51
2022/10/23 03:43:39;;;;;;;;;5.50;2.50;;;;;18.72;59.74;100176.38;5088021;27;67197;-49
2022/10/23 03:46:08;;;;;;;;;3.50;3.00;;;;;18.72;59.86;100179.84;5090976;27;64776;-48
2022/10/23 03:48:36;;;;;;;;;3.25;3.00;;;;;18.75;59.98;100181.44;5061320;28;45449;-52
2022/10/23 03:51:02;;;;;;;;;4.00;3.50;;;;;18.79;59.97;100188.22;5093165;27;45399;-52
2022/10/23 03:53:28;;;;;;;;;5.00;4.25;;;;;18.79;59.87;100183.78;5083209;27;45961;-49
2022/10/23 03:55:53;;;;;;;;;5.25;3.00;;;;;18.81;59.73;100181.00;5090891;27;72613;-50
2022/10/23 03:58:18;;;;;;;;;3.50;3.00;;;;;18.80;60.04;100163.41;5072370;27;62376;-51
2022/10/23 04:00:44;;;;;;;;;4.25;4.25;;;;;18.81;60.03;100177.53;5100146;27;59588;-51
2022/10/23 04:03:09;;;;;;;;;4.00;3.75;;;;;18.82;59.93;100165.97;5094377;27;76710;-50
2022/10/23 04:05:34;;;;;;;;;5.50;3.75;;;;;18.83;59.85;100175.63;5099616;27;54127;-52
2022/10/23 04:08:01;;;;;;;;;4.00;2.50;;;;;18.84;60.03;100191.44;5073137;27;45294;-48
2022/10/23 04:10:26;;;;;;;;;5.00;4.00;;;;;18.84;60.14;100190.56;5099686;27;68459;-48
2022/10/23 04:12:51;;;;;;;;;4.25;4.00;;;;;18.82;59.81;100188.03;5090423;27;70506;-49
2022/10/23 04:15:17;;;;;;;;;2.75;2.75;;;;;18.82;59.99;100184.53;5077844;27;52586;-47
2022/10/23 04:17:42;;;;;;;;;6.00;3.00;;;;;18.82;60.31;100193.31;5072019;28;46072;-47
2022/10/23 04:20:08;;;;;;;;;5.00;3.25;;;;;18.84;60.17;100188.78;5085456;27;66637;-48
2022/10/23 04:22:33;;;;;;;;;4.50;4.50;;;;;18.85;60.16;100182.50;5093264;27;45559;-46
2022/10/23 04:24:58;;;;;;;;;6.00;5.50;;;;;18.88;60.13;100177.00;5080961;27;70895;-54
2022/10/23 04:27:24;;;;;;;;;3.75;3.00;;;;;18.89;59.98;100181.38;5072815;27;60939;-48
2022/10/23 04:29:49;;;;;;;;;6.75;4.25;;;;;18.90;59.99;100188.34;5095409;27;45443;-48
2022/10/23 04:32:14;;;;;;;;;4.75;3.50;;;;;18.91;60.14;100184.75;5092891;27;46263;-48
2022/10/23 04:34:40;;;;;;;;;3.75;3.00;;;;;18.90;60.27;100184.84;5102682;27;45338;-50
2022/10/23 04:37:05;;;;;;;;;4.75;3.00;;;;;18.89;60.21;100184.00;5092500;27;58227;-49
2022/10/23 04:39:30;;;;;;;;;4.75;4.25;;;;;18.89;60.35;100189.31;5084791;27;66383;-51
2022/10/23 04:41:56;;;;;;;;;6.50;4.50;;;;;18.88;60.19;100182.31;5080403;27;46334;-49
2022/10/23 04:44:21;;;;;;;;;7.75;5.00;;;;;18.88;60.43;100168.22;5076248;27;64989;-50
2022/10/23 04:46:46;;;;;;;;;4.00;4.00;;;;;18.89;60.61;100159.28;5101542;27;62474;-47
2022/10/23 04:49:12;;;;;;;;;5.50;4.50;;;;;18.89;60.37;100148.69;5077492;28;45580;-47
2022/10/23 04:51:37;;;;;;;;;7.50;4.75;;;;;18.91;60.64;100155.59;5097016;27;70895;-48
2022/10/23 04:54:02;;;;;;;;;7.75;5.00;;;;;18.91;60.50;100176.78;5086110;27;45383;-49
2022/10/23 04:56:28;;;;;;;;;3.50;3.25;;;;;18.94;60.62;100204.88;5079916;27;45426;-48
2022/10/23 04:58:53;;;;;;;;;7.25;3.00;;;;;18.93;60.55;100203.22;5091236;27;45240;-50
2022/10/23 05:01:19;;;;;;;;;5.50;4.25;;;;;18.92;60.46;100214.75;5102302;27;46092;-51
2022/10/23 05:03:44;;;;;;;;;4.75;4.75;;;;;18.90;60.76;100206.91;5089851;27;45395;-50
2022/10/23 05:06:09;;;;;;;;;4.75;4.00;;;;;18.91;60.81;100211.25;5095961;27;45194;-53
2022/10/23 05:08:35;;;;;;;;;6.50;4.75;;;;;18.92;60.70;100188.25;5058673;27;45610;-48
2022/10/23 05:11:01;;;;;;;;;7.50;5.50;;;;;18.90;60.59;100180.38;5079690;27;47850;-52
2022/10/23 05:13:26;;;;;;;;;5.75;4.00;;;;;18.89;60.90;100184.00;5079935;27;45314;-50
2022/10/23 05:15:51;;;;;;;;;7.25;4.00;;;;;18.88;61.09;100176.16;5088673;27;57569;-53
2022/10/23 05:18:22;;;;;;;;;6.00;4.50;;;;;18.87;60.98;100169.16;5089524;27;45442;-52
2022/10/23 05:20:51;;;;;;;;;3.25;3.25;;;;;18.84;61.07;100166.72;5084708;27;46202;-51
2022/10/23 05:23:18;;;;;;;;;4.25;3.50;;;;;18.84;61.20;100167.59;5074629;27;45309;-49
2022/10/23 05:25:44;;;;;;;;;4.75;4.25;;;;;18.83;60.96;100152.63;5072496;27;45481;-48
2022/10/23 05:28:09;;;;;;;;;6.50;4.00;;;;;18.81;61.04;100161.63;5101006;27;45340;-49
2022/10/23 05:30:34;;;;;;;;;5.00;5.00;;;;;18.76;61.25;100138.91;5101497;27;45442;-50
2022/10/23 05:33:01;;;;;;;;;4.25;4.25;;;;;18.77;61.24;100124.72;5079071;28;71719;-49
2022/10/23 05:35:28;;;;;;;;;5.00;5.00;;;;;18.75;61.31;100123.09;5084703;27;45647;-51
2022/10/23 05:37:55;;;;;;;;;5.75;4.00;;;;;18.72;61.47;100110.09;5080686;27;45545;-50
2022/10/23 05:40:20;;;;;;;;;6.75;4.75;;;;;18.69;61.50;100115.63;5079970;27;45388;-51
2022/10/23 05:42:45;;;;;;;;;4.75;4.00;;;;;18.62;61.69;100103.75;5093125;27;45232;-50
2022/10/23 05:45:11;;;;;;;;;5.50;4.25;;;;;18.61;61.53;100108.22;5095770;27;68435;-53
2022/10/23 05:47:36;;;;;;;;;7.25;5.50;;;;;18.60;61.64;100107.34;5089667;27;67368;-50
2022/10/23 05:50:01;;;;;;;;;6.75;4.00;;;;;18.59;61.75;100100.38;5086705;27;45264;-52
2022/10/23 05:52:27;;;;;;;;;4.00;4.00;;;;;18.60;61.83;100098.56;5083293;27;45435;-54
2022/10/23 05:54:52;;;;;;;;;4.00;4.00;;;;;18.60;62.02;100091.44;5091293;27;59243;-51
2022/10/23 05:57:18;;;;;;;;;3.75;3.00;;;;;18.56;61.73;100095.28;5094429;27;45534;-53
2022/10/23 05:59:43;;;;;;;;;7.25;4.50;;;;;18.59;61.83;100107.44;5095743;27;46007;-53
2022/10/23 06:02:09;;;;;;;;;5.25;4.75;;;;;18.59;61.80;100103.03;5099451;27;45422;-51
2022/10/23 06:04:34;;;;;;;;;5.00;4.50;;;;;18.60;61.81;100110.00;5094315;27;59054;-54
2022/10/23 06:07:00;;;;;;;;;7.50;5.75;;;;;18.59;61.82;100110.09;5093301;27;59320;-52
2022/10/23 06:09:25;;;;;;;;;7.25;5.75;;;;;18.56;62.11;100126.25;5090241;27;45466;-53
2022/10/23 06:11:51;;;;;;;;;6.00;5.25;;;;;18.52;61.99;100116.78;5092866;27;73019;-48
2022/10/23 06:14:16;;;;;;;;;8.25;5.25;;;;;18.51;61.93;100099.22;5095122;27;68854;-52
2022/10/23 06:16:41;;;;;;;;;6.75;6.00;;;;;18.50;62.04;100100.16;5101176;27;45333;-49
2022/10/23 06:19:10;;;;;;;;;5.00;5.00;;;;;18.49;62.13;100112.56;5088680;27;69947;-51
2022/10/23 06:21:36;;;;;;;;;8.25;5.75;;;;;18.46;62.17;100104.81;5080500;27;45282;-49
2022/10/23 06:24:01;;;;;;;;;4.00;4.00;;;;;18.44;62.02;100098.78;5078694;27;45240;-52
2022/10/23 06:26:26;;;;;;;;;5.00;5.00;;;;;18.45;62.31;100112.88;5099397;27;66722;-52
2022/10/23 06:28:52;;;;;;;;;9.75;6.00;;;;;18.43;62.28;100110.31;5098756;27;74166;-50
2022/10/23 06:31:25;;;;;;;;;6.75;4.25;;;;;18.42;62.47;100095.41;5100195;27;63078;-50
2022/10/23 06:33:50;;;;;;;;;10.50;7.00;;;;;18.43;62.45;100088.28;5087588;27;45372;-49
2022/10/23 06:36:15;;;;;;;;;6.50;5.00;;;;;18.36;62.22;100086.09;5083217;27;59435;-53
2022/10/23 06:38:41;;;;;;;;;7.75;5.00;;;;;18.39;62.22;100085.84;5098768;27;76446;-53
2022/10/23 06:41:12;;;;;;;;;5.75;5.50;;;;;18.39;62.67;100091.16;5100828;27;45190;-50
2022/10/23 06:43:37;;;;;;;;;5.00;5.00;;;;;18.41;62.81;100088.41;5096875;27;45296;-51
2022/10/23 06:46:03;;;;;;;;;6.75;4.00;;;;;18.42;62.44;100084.81;5096862;27;57769;-48
2022/10/23 06:48:29;;;;;;;;;6.25;4.50;;;;;18.44;62.36;100076.75;5080835;27;47213;-47
2022/10/23 06:50:55;;;;;;;;;7.50;4.75;;;;;18.44;62.61;100074.94;5096832;27;45435;-51
2022/10/23 06:53:23;;;;;;;;;9.50;5.00;;;;;18.44;62.45;100082.06;5093448;27;45208;-50
2022/10/23 06:55:49;;;;;;;;;8.25;4.50;;;;;18.44;62.74;100084.69;5072713;27;45332;-49
2022/10/23 06:58:14;;;;;;;;;9.50;5.75;;;;;18.42;62.61;100079.50;5089990;27;45997;-50
2022/10/23 07:00:39;;;;;;;;;6.75;3.75;;;;;18.43;62.43;100078.53;5089559;27;59361;-48
2022/10/23 07:03:05;;;;;;;;;7.75;6.25;;;;;18.40;62.71;100074.31;5087663;27;64315;-48
2022/10/23 07:05:31;;;;;;;;;6.25;4.25;;;;;18.42;62.72;100070.72;5074100;27;65751;-49
2022/10/23 07:07:57;;;;;;;;;9.50;5.00;;;;;18.42;62.43;100057.47;5098716;27;46293;-53
2022/10/23 07:10:22;;;;;;;;;6.75;4.25;;;;;18.42;62.30;100060.13;5090295;27;45368;-50
2022/10/23 07:12:47;;;;;;;;;7.00;6.00;;;;;18.41;62.81;100061.91;5080209;27;45379;-50
2022/10/23 07:15:14;;;;;;;;;8.25;5.50;;;;;18.42;62.41;100058.31;5091103;27;45643;-51
2022/10/23 07:17:39;;;;;;;;;11.00;6.00;;;;;18.40;62.66;100063.72;5096896;27;45260;-50
2022/10/23 07:20:05;;;;;;;;;5.00;5.00;;;;;18.45;62.55;100060.75;5096695;27;60632;-52
2022/10/23 07:22:30;;;;;;;;;6.00;6.00;;;;;18.46;62.52;100054.47;5100102;27;45304;-50
2022/10/23 07:24:55;;;;;;;;;9.25;6.25;;;;;18.48;62.56;100059.69;5092014;27;45393;-54
2022/10/23 07:27:21;;;;;;;;;6.25;5.00;;;;;18.51;62.85;100054.16;5091907;27;62246;-52
2022/10/23 07:29:49;;;;;;;;;5.00;5.00;;;;;18.53;62.76;100055.75;5094382;27;73326;-50
2022/10/23 07:32:14;;;;;;;;;9.50;7.25;;;;;18.57;62.54;100064.31;5091108;27;45430;-52
2022/10/23 07:34:40;;;;;;;;;7.00;5.75;;;;;18.59;62.32;100057.09;5086214;27;55644;-51
2022/10/23 07:37:05;;;;;;;;;9.00;6.00;;;;;18.60;62.30;100067.59;5075836;27;47916;-48
2022/10/23 07:39:30;;;;;;;;;10.00;6.00;;;;;18.62;62.41;100067.50;5102884;27;61886;-50
2022/10/23 07:41:56;;;;;;;;;5.00;5.00;;;;;18.62;61.83;100064.84;5090599;27;49727;-52
2022/10/23 07:44:21;;;;;;;;;6.00;6.00;;;;;18.64;62.15;100057.63;5093322;27;59988;-53
2022/10/23 07:46:46;;;;;;;;;8.75;6.50;;;;;18.60;62.52;100051.69;5102340;27;67141;-53
2022/10/23 07:49:12;;;;;;;;;7.00;5.00;;;;;18.60;62.22;100048.19;5102665;27;65077;-51
2022/10/23 07:51:37;;;;;;;;;7.00;5.25;;;;;18.63;62.38;100049.78;5102488;27;57280;-48
2022/10/23 07:54:02;;;;;;;;;7.50;5.25;;;;;18.66;62.30;100044.25;5095584;27;70442;-50
2022/10/23 07:56:30;;;;;;;;;8.25;6.00;;;;;18.63;62.11;100039.19;5090361;27;71008;-52
2022/10/23 07:58:56;;;;;;;;;8.00;5.00;;;;;18.64;62.38;100038.22;5095453;27;45383;-52
2022/10/23 08:01:29;;;;;;;;;7.25;6.00;;;;;18.65;62.00;100042.59;5092076;27;45489;-49
2022/10/23 08:03:54;;;;;;;;;13.25;7.50;;;;;18.65;61.97;100051.38;5096370;27;45299;-49
2022/10/23 08:06:20;;;;;;;;;7.50;6.75;;;;;18.66;62.14;100046.91;5081646;27;57736;-52
2022/10/23 08:08:45;;;;;;;;;11.50;6.75;;;;;18.68;62.15;100052.94;5102322;27;70971;-53
2022/10/23 08:11:12;;;;;;;;;6.25;5.25;;;;;18.68;62.19;100039.69;5093727;27;61095;-51
2022/10/23 08:13:38;;;;;;;;;7.25;6.00;;;;;18.72;62.14;100038.53;5103060;27;45252;-53
2022/10/23 08:16:03;;;;;;;;;9.00;7.00;;;;;18.77;62.09;100042.53;5098590;27;46040;-53
2022/10/23 08:18:28;;;;;;;;;7.00;5.75;;;;;18.81;62.29;100034.38;5086564;27;45284;-53
2022/10/23 08:20:59;;;;;;;;;5.75;5.25;;;;;18.86;61.93;100041.06;5100359;27;63702;-53
2022/10/23 08:23:25;;;;;;;;;8.25;8.00;;;;;18.88;61.42;100040.94;5087486;27;45413;-51
2022/10/23 08:25:59;;;;;;;;;7.25;6.00;;;;;18.90;61.37;100039.03;5088041;27;46094;-53
2022/10/23 08:28:25;;;;;;;;;7.25;6.00;;;;;18.93;61.54;100041.47;5102717;27;45264;-53
2022/10/23 08:30:50;;;;;;;;;9.00;6.00;;;;;18.97;61.76;100037.63;5096958;27;45248;-52
2022/10/23 08:33:16;;;;;;;;;6.25;6.00;;;;;19.01;61.32;100022.34;5096872;27;45239;-51
2022/10/23 08:35:41;;;;;;;;;6.25;5.75;;;;;19.03;61.48;100023.91;5091249;27;72080;-51
2022/10/23 08:38:06;;;;;;;;;7.00;6.00;;;;;19.06;60.95;100017.53;5080027;27;45364;-51
2022/10/23 08:40:34;;;;;;;;;6.50;5.25;;;;;19.11;61.12;100018.03;5097067;27;66509;-53
2022/10/23 08:43:14;;;;;;;;;7.75;5.00;;;;;19.12;61.20;100017.94;5086387;27;45403;-52
2022/10/23 08:45:44;;;;;;;;;13.00;8.00;;;;;19.17;61.29;100025.53;5095560;27;46278;-52
2022/10/23 08:48:22;;;;;;;;;12.50;8.75;;;;;19.18;60.86;100024.59;5097244;27;45746;-53
2022/10/23 08:51:28;;;;;;;;;5.00;5.00;;;;;19.21;60.84;100027.00;5087250;27;45350;-51
2022/10/23 08:54:10;;;;;;;;;7.25;6.00;;;;;19.19;60.10;100030.72;4988694;28;45289;-53
2022/10/23 08:56:41;;;;;;;;;7.50;6.25;;;;;19.21;60.64;100026.16;5046283;27;46314;-52
2022/10/23 08:59:31;;;;;;;;;7.50;5.25;;;;;19.23;60.62;100024.22;5092965;27;45422;-51
2022/10/23 09:02:01;;;;;;;;;8.00;4.50;;;;;19.26;60.54;100019.53;5082813;27;45346;-48
2022/10/23 09:04:26;;;;;;;;;6.25;5.00;;;;;19.28;60.48;100009.69;5081761;27;45338;-50
2022/10/23 09:07:20;;;;;;;;;9.75;6.00;;;;;19.34;60.41;100014.50;5096736;27;74445;-51
2022/10/23 09:10:04;;;;;;;;;8.00;7.75;;;;;19.40;60.53;100015.00;5088993;27;45252;-51
2022/10/23 09:12:30;;;;;;;;;11.25;7.00;;;;;19.44;60.03;100022.63;5088721;27;45438;-54
2022/10/23 09:15:24;;;;;;;;;6.75;6.75;;;;;19.49;59.90;100031.06;5075664;27;45316;-54
2022/10/23 09:18:03;;;;;;;;;10.75;7.25;;;;;19.54;59.84;100036.03;5073808;27;46241;-53
2022/10/23 09:20:33;;;;;;;;;5.75;4.50;;;;;19.58;59.76;100018.06;5082554;27;45817;-51
2022/10/23 09:23:14;;;;;;;;;8.50;6.25;;;;;19.64;60.09;100014.97;5083272;27;45423;-49
2022/10/23 09:25:41;;;;;;;;;7.00;6.00;;;;;19.68;59.54;100017.25;5079443;27;45285;-49
2022/10/23 09:28:17;;;;;;;;;8.00;7.00;;;;;19.73;59.94;100017.78;5102055;27;45367;-49
2022/10/23 09:30:43;;;;;;;;;9.25;6.00;;;;;19.79;59.70;100010.31;5100739;27;45591;-48
2022/10/23 09:33:16;;;;;;;;;7.25;6.75;;;;;19.83;59.24;100009.97;5091390;27;45185;-54
2022/10/23 09:36:02;;;;;;;;;7.75;6.25;;;;;19.87;59.34;100007.91;5085037;27;45253;-50
2022/10/23 09:38:32;;;;;;;;;7.00;7.00;;;;;19.93;59.45;99999.44;5082873;27;47388;-50
2022/10/23 09:41:15;;;;;;;;;8.00;6.25;;;;;19.98;58.83;99997.28;5101154;27;45360;-50
2022/10/23 09:43:40;;;;;;;;;7.25;7.25;;;;;20.02;58.83;99993.41;5075018;27;45424;-48
2022/10/23 09:46:06;;;;;;;;;7.00;5.75;;;;;20.09;58.54;99994.63;5091683;27;45224;-51
2022/10/23 09:48:33;;;;;;;;;7.00;5.00;;;;;20.15;58.44;100011.03;5100590;27;45253;-50
2022/10/23 09:51:00;;;;;;;;;6.00;5.00;;;;;20.20;58.08;99999.13;5094070;27;45330;-53
2022/10/23 09:53:47;;;;;;;;;6.00;6.00;;;;;20.23;58.58;99996.19;5071437;27;45403;-48
2022/10/23 09:56:39;;;;;;;;;5.00;5.00;;;;;20.29;58.36;99994.84;5098007;27;45536;-49
2022/10/23 09:59:21;;;;;;;;;8.50;6.00;;;;;20.32;57.81;99993.78;5075869;27;45429;-49
2022/10/23 10:01:55;;;;;;;;;8.50;7.25;;;;;20.35;58.07;99996.19;5076434;27;45277;-48
2022/10/23 10:04:35;;;;;;;;;7.25;6.00;;;;;20.39;58.06;99985.19;5079419;27;45272;-52
2022/10/23 10:07:04;;;;;;;;;7.50;7.25;;;;;20.45;57.08;99986.50;5098028;27;45554;-50
2022/10/23 10:09:30;;;;;;;;;12.75;11.25;;;;;20.49;57.43;99980.81;5092275;27;45372;-52
2022/10/23 10:12:06;;;;;;;;;11.75;7.25;;;;;20.55;56.88;99974.16;5097232;27;64409;-54
2022/10/23 10:14:59;;;;;;;;;10.50;7.00;;;;;20.59;57.13;99978.28;5069862;27;45467;-51
2022/10/23 10:17:31;;;;;;;;;6.00;6.00;;;;;20.66;57.25;99968.88;5080227;27;45189;-50
2022/10/23 10:20:23;;;;;;;;;5.50;5.25;;;;;20.72;56.51;99972.00;5089671;27;45439;-54
2022/10/23 10:23:03;;;;;;;;;8.50;6.50;;;;;20.76;56.04;99976.91;5074435;27;45409;-51
2022/10/23 10:25:36;;;;;;;;;7.00;5.25;;;;;20.78;56.53;99964.34;5098749;27;45620;-51
2022/10/23 10:28:29;;;;;;;;;10.00;6.00;;;;;20.83;56.38;99963.97;5089336;27;45415;-51
2022/10/23 10:31:10;;;;;;;;;8.00;6.50;;;;;20.88;55.92;99955.63;5096059;27;45505;-50
2022/10/23 10:34:02;;;;;;;;;6.25;5.25;;;;;20.92;56.26;99968.53;5090705;27;45681;-53
2022/10/23 10:36:48;;;;;;;;;10.00;7.25;;;;;20.98;55.93;99964.50;5089754;27;45365;-51
2022/10/23 10:39:31;;;;;;;;;7.75;6.75;;;;;21.03;55.61;99970.28;5074213;28;46271;-49
2022/10/23 10:42:07;;;;;;;;;9.25;7.50;;;;;21.05;56.08;99961.22;5098311;27;45308;-51
2022/10/23 10:45:00;;;;;;;;;12.00;6.25;;;;;21.14;55.26;99961.41;5030034;27;45311;-51
2022/10/23 10:47:32;;;;;;;;;10.25;10.00;;;;;21.19;55.78;99968.03;5100639;27;45484;-52
2022/10/23 10:50:10;;;;;;;;;10.75;9.00;;;;;21.22;55.65;99951.81;5078163;27;45447;-47
2022/10/23 10:52:41;;;;;;;;;6.75;6.75;;;;;21.27;55.57;99943.44;5093905;27;46321;-51
2022/10/23 10:55:09;;;;;;;;;13.50;10.00;;;;;21.31;55.04;99942.22;5088082;27;45918;-50
2022/10/23 10:57:43;;;;;;;;;8.25;7.50;;;;;21.35;55.25;99940.97;5079819;27;45388;-53
2022/10/23 11:00:15;;;;;;;;;12.00;6.25;;;;;21.42;55.36;99938.63;5097410;27;45580;-53
2022/10/23 11:02:49;;;;;;;;;11.25;6.75;;;;;21.46;54.93;99948.09;5099281;27;46021;-52
2022/10/23 11:05:31;;;;;;;;;9.00;9.00;;;;;21.51;54.94;99942.34;5081628;27;45253;-51
2022/10/23 11:08:10;;;;;;;;;12.75;8.50;;;;;21.54;54.36;99937.63;5088289;27;45303;-48
2022/10/23 11:10:39;;;;;;;;;9.75;8.25;;;;;21.58;54.37;99936.41;5068415;27;45238;-49
2022/10/23 11:13:04;;;;;;;;;13.50;10.75;;;;;21.62;54.86;99929.00;5069054;28;46403;-54
2022/10/23 11:15:38;;;;;;;;;21.00;13.75;;;;;21.67;54.35;99932.06;5073990;27;69535;-51
2022/10/23 11:18:12;;;;;;;;;7.00;7.00;;;;;21.70;53.93;99920.31;5098921;27;45528;-50
2022/10/23 11:20:52;;;;;;;;;11.00;8.50;;;;;21.75;55.00;99915.44;5072653;27;45287;-52
2022/10/23 11:23:21;;;;;;;;;10.25;8.25;;;;;21.78;54.01;99916.03;5084382;27;45538;-53
2022/10/23 11:26:45;;;;;;;;;6.25;6.00;;;;;21.85;53.53;99908.34;5086983;27;45381;-52
2022/10/23 11:29:35;;;;;;;;;6.25;6.25;;;;;21.87;53.98;99893.06;4980747;28;45268;-53
2022/10/23 11:32:13;;;;;;;;;9.50;6.50;;;;;21.92;53.57;99885.50;4997155;28;45486;-49
2022/10/23 11:35:03;;;;;;;;;8.25;5.00;;;;;21.96;53.43;99880.75;5075738;27;45312;-55
2022/10/23 11:37:29;;;;;;;;;6.75;6.00;;;;;22.03;53.30;99894.34;5089206;27;45336;-55
2022/10/23 11:40:07;;;;;;;;;4.75;4.75;;;;;22.05;53.10;99892.41;5095380;27;45463;-52